sensor_id;sensor_type;location;lat;lon;timestamp;P1;durP1;ratioP1;P2;durP2;ratioP2
16524;SDS011;8375;33.594;-117.718;2023-05-24T00:01:21;5.77;;;3.20;;
16524;SDS011;8375;33.594;-117.718;2023-05-24T00:03:54;6.63;;;3.47;;
16524;SDS011;8375;33.594;-117.718;2023-05-24T00:06:25;9.23;;;3.47;;
16524;SDS011;8375;33.594;-117.718;2023-05-24T00:08:54;6.07;;;3.20;;
16524;SDS011;8375;33.594;-117.718;2023-05-24T00:11:23;7.30;;;3.13;;
16524;SDS011;8375;33.594;-117.718;2023-05-24T00:13:52;9.17;;;3.57;;
16524;SDS011;8375;33.594;-117.718;2023-05-24T00:16:22;6.30;;;3.30;;
16524;SDS011;8375;33.594;-117.718;2023-05-24T00:18:51;5.17;;;3.17;;
16524;SDS011;8375;33.594;-117.718;2023-05-24T00:21:20;7.57;;;3.13;;
16524;SDS011;8375;33.594;-117.718;2023-05-24T00:23:48;6.77;;;3.10;;
16524;SDS011;8375;33.594;-117.718;2023-05-24T00:26:17;5.23;;;2.80;;
16524;SDS011;8375;33.594;-117.718;2023-05-24T00:28:46;6.13;;;3.03;;
16524;SDS011;8375;33.594;-117.718;2023-05-24T00:31:15;5.00;;;3.03;;
16524;SDS011;8375;33.594;-117.718;2023-05-24T00:33:45;5.37;;;3.27;;
16524;SDS011;8375;33.594;-117.718;2023-05-24T00:36:13;5.27;;;3.00;;
16524;SDS011;8375;33.594;-117.718;2023-05-24T00:38:42;6.43;;;3.27;;
16524;SDS011;8375;33.594;-117.718;2023-05-24T00:41:11;6.63;;;3.00;;
16524;SDS011;8375;33.594;-117.718;2023-05-24T00:43:40;5.27;;;3.33;;
16524;SDS011;8375;33.594;-117.718;2023-05-24T00:46:13;4.80;;;3.30;;
16524;SDS011;8375;33.594;-117.718;2023-05-24T00:48:46;8.13;;;3.20;;
16524;SDS011;8375;33.594;-117.718;2023-05-24T00:51:16;6.23;;;3.60;;
16524;SDS011;8375;33.594;-117.718;2023-05-24T00:53:48;7.10;;;3.60;;
16524;SDS011;8375;33.594;-117.718;2023-05-24T00:56:16;4.27;;;2.97;;
16524;SDS011;8375;33.594;-117.718;2023-05-24T00:58:45;6.90;;;3.70;;
16524;SDS011;8375;33.594;-117.718;2023-05-24T01:01:15;5.57;;;3.40;;
16524;SDS011;8375;33.594;-117.718;2023-05-24T01:03:43;7.60;;;3.60;;
16524;SDS011;8375;33.594;-117.718;2023-05-24T01:06:13;4.70;;;3.00;;
16524;SDS011;8375;33.594;-117.718;2023-05-24T01:08:44;4.40;;;3.40;;
16524;SDS011;8375;33.594;-117.718;2023-05-24T01:11:25;7.10;;;3.47;;
16524;SDS011;8375;33.594;-117.718;2023-05-24T01:14:05;8.20;;;3.83;;
16524;SDS011;8375;33.594;-117.718;2023-05-24T01:16:45;5.33;;;3.60;;
16524;SDS011;8375;33.594;-117.718;2023-05-24T01:19:30;5.60;;;3.17;;
16524;SDS011;8375;33.594;-117.718;2023-05-24T01:22:17;6.50;;;3.80;;
16524;SDS011;8375;33.594;-117.718;2023-05-24T01:25:06;8.00;;;4.20;;
16524;SDS011;8375;33.594;-117.718;2023-05-24T01:27:41;6.93;;;3.63;;
16524;SDS011;8375;33.594;-117.718;2023-05-24T01:30:11;6.47;;;4.03;;
16524;SDS011;8375;33.594;-117.718;2023-05-24T01:32:40;7.00;;;3.80;;
16524;SDS011;8375;33.594;-117.718;2023-05-24T01:35:09;8.37;;;4.10;;
16524;SDS011;8375;33.594;-117.718;2023-05-24T01:37:38;11.30;;;4.23;;
16524;SDS011;8375;33.594;-117.718;2023-05-24T01:40:07;9.63;;;3.80;;
16524;SDS011;8375;33.594;-117.718;2023-05-24T01:42:39;7.80;;;4.00;;
16524;SDS011;8375;33.594;-117.718;2023-05-24T01:45:15;8.77;;;3.30;;
16524;SDS011;8375;33.594;-117.718;2023-05-24T01:47:54;9.30;;;4.43;;
16524;SDS011;8375;33.594;-117.718;2023-05-24T01:50:31;7.53;;;3.53;;
16524;SDS011;8375;33.594;-117.718;2023-05-24T01:53:03;11.83;;;4.30;;
16524;SDS011;8375;33.594;-117.718;2023-05-24T01:55:33;11.13;;;3.90;;
16524;SDS011;8375;33.594;-117.718;2023-05-24T01:58:06;8.87;;;4.20;;
16524;SDS011;8375;33.594;-117.718;2023-05-24T02:00:36;9.37;;;3.97;;
16524;SDS011;8375;33.594;-117.718;2023-05-24T02:03:06;10.00;;;3.63;;
16524;SDS011;8375;33.594;-117.718;2023-05-24T02:05:36;9.40;;;3.77;;
16524;SDS011;8375;33.594;-117.718;2023-05-24T02:08:06;10.60;;;4.03;;
16524;SDS011;8375;33.594;-117.718;2023-05-24T02:10:35;9.33;;;4.00;;
16524;SDS011;8375;33.594;-117.718;2023-05-24T02:13:04;10.80;;;4.87;;
16524;SDS011;8375;33.594;-117.718;2023-05-24T02:15:34;12.77;;;4.80;;
16524;SDS011;8375;33.594;-117.718;2023-05-24T02:18:03;13.90;;;4.93;;
16524;SDS011;8375;33.594;-117.718;2023-05-24T02:20:35;12.63;;;5.87;;
16524;SDS011;8375;33.594;-117.718;2023-05-24T02:23:04;10.90;;;4.93;;
16524;SDS011;8375;33.594;-117.718;2023-05-24T02:25:33;10.07;;;4.90;;
16524;SDS011;8375;33.594;-117.718;2023-05-24T02:28:02;11.50;;;4.80;;
16524;SDS011;8375;33.594;-117.718;2023-05-24T02:30:33;11.20;;;4.33;;
16524;SDS011;8375;33.594;-117.718;2023-05-24T02:33:03;10.40;;;4.83;;
16524;SDS011;8375;33.594;-117.718;2023-05-24T02:35:31;10.90;;;4.53;;
16524;SDS011;8375;33.594;-117.718;2023-05-24T02:38:00;11.97;;;4.93;;
16524;SDS011;8375;33.594;-117.718;2023-05-24T02:40:31;14.00;;;5.10;;
16524;SDS011;8375;33.594;-117.718;2023-05-24T02:42:59;8.80;;;4.87;;
16524;SDS011;8375;33.594;-117.718;2023-05-24T02:45:28;12.83;;;4.47;;
16524;SDS011;8375;33.594;-117.718;2023-05-24T02:47:58;9.77;;;4.27;;
16524;SDS011;8375;33.594;-117.718;2023-05-24T02:50:27;12.77;;;4.60;;
16524;SDS011;8375;33.594;-117.718;2023-05-24T02:52:56;14.43;;;5.17;;
16524;SDS011;8375;33.594;-117.718;2023-05-24T02:55:24;10.57;;;4.73;;
16524;SDS011;8375;33.594;-117.718;2023-05-24T02:57:53;8.97;;;4.43;;
16524;SDS011;8375;33.594;-117.718;2023-05-24T03:00:22;13.40;;;4.80;;
16524;SDS011;8375;33.594;-117.718;2023-05-24T03:02:51;11.70;;;5.27;;
16524;SDS011;8375;33.594;-117.718;2023-05-24T03:05:21;10.60;;;4.90;;
16524;SDS011;8375;33.594;-117.718;2023-05-24T03:07:50;14.63;;;5.23;;
16524;SDS011;8375;33.594;-117.718;2023-05-24T03:10:19;14.70;;;5.67;;
16524;SDS011;8375;33.594;-117.718;2023-05-24T03:12:47;8.97;;;4.70;;
16524;SDS011;8375;33.594;-117.718;2023-05-24T03:15:17;12.47;;;5.30;;
16524;SDS011;8375;33.594;-117.718;2023-05-24T03:17:46;14.47;;;5.30;;
16524;SDS011;8375;33.594;-117.718;2023-05-24T03:20:15;14.07;;;5.33;;
16524;SDS011;8375;33.594;-117.718;2023-05-24T03:22:47;10.90;;;4.87;;
16524;SDS011;8375;33.594;-117.718;2023-05-24T03:25:15;18.00;;;6.43;;
16524;SDS011;8375;33.594;-117.718;2023-05-24T03:27:45;12.93;;;5.63;;
16524;SDS011;8375;33.594;-117.718;2023-05-24T03:30:13;15.47;;;5.40;;
16524;SDS011;8375;33.594;-117.718;2023-05-24T03:32:42;13.87;;;4.90;;
16524;SDS011;8375;33.594;-117.718;2023-05-24T03:35:11;16.20;;;5.03;;
16524;SDS011;8375;33.594;-117.718;2023-05-24T03:37:39;11.87;;;4.90;;
16524;SDS011;8375;33.594;-117.718;2023-05-24T03:40:10;19.93;;;4.70;;
16524;SDS011;8375;33.594;-117.718;2023-05-24T03:42:39;12.83;;;5.40;;
16524;SDS011;8375;33.594;-117.718;2023-05-24T03:45:08;18.40;;;5.73;;
16524;SDS011;8375;33.594;-117.718;2023-05-24T03:47:37;10.17;;;4.23;;
16524;SDS011;8375;33.594;-117.718;2023-05-24T03:50:06;20.13;;;5.13;;
16524;SDS011;8375;33.594;-117.718;2023-05-24T03:52:35;10.50;;;4.53;;
16524;SDS011;8375;33.594;-117.718;2023-05-24T03:55:04;17.47;;;5.00;;
16524;SDS011;8375;33.594;-117.718;2023-05-24T03:57:35;15.07;;;5.20;;
16524;SDS011;8375;33.594;-117.718;2023-05-24T04:00:04;14.60;;;4.73;;
16524;SDS011;8375;33.594;-117.718;2023-05-24T04:02:33;16.03;;;4.90;;
16524;SDS011;8375;33.594;-117.718;2023-05-24T04:05:03;11.70;;;4.50;;
16524;SDS011;8375;33.594;-117.718;2023-05-24T04:07:34;11.73;;;4.47;;
16524;SDS011;8375;33.594;-117.718;2023-05-24T04:10:03;12.10;;;4.67;;
16524;SDS011;8375;33.594;-117.718;2023-05-24T04:12:35;13.43;;;4.53;;
16524;SDS011;8375;33.594;-117.718;2023-05-24T04:15:04;11.20;;;5.13;;
16524;SDS011;8375;33.594;-117.718;2023-05-24T04:17:34;12.27;;;4.80;;
16524;SDS011;8375;33.594;-117.718;2023-05-24T04:20:03;11.47;;;4.53;;
16524;SDS011;8375;33.594;-117.718;2023-05-24T04:22:34;14.07;;;4.70;;
16524;SDS011;8375;33.594;-117.718;2023-05-24T04:25:02;13.53;;;5.27;;
16524;SDS011;8375;33.594;-117.718;2023-05-24T04:27:32;9.23;;;4.43;;
16524;SDS011;8375;33.594;-117.718;2023-05-24T04:30:03;12.60;;;5.03;;
16524;SDS011;8375;33.594;-117.718;2023-05-24T04:32:33;14.83;;;4.73;;
16524;SDS011;8375;33.594;-117.718;2023-05-24T04:35:02;11.53;;;4.73;;
16524;SDS011;8375;33.594;-117.718;2023-05-24T04:37:32;9.83;;;4.20;;
16524;SDS011;8375;33.594;-117.718;2023-05-24T04:40:00;9.93;;;4.50;;
16524;SDS011;8375;33.594;-117.718;2023-05-24T04:42:30;13.33;;;4.70;;
16524;SDS011;8375;33.594;-117.718;2023-05-24T04:44:59;14.37;;;5.40;;
16524;SDS011;8375;33.594;-117.718;2023-05-24T04:47:29;12.60;;;4.60;;
16524;SDS011;8375;33.594;-117.718;2023-05-24T04:49:58;10.47;;;4.50;;
16524;SDS011;8375;33.594;-117.718;2023-05-24T04:52:26;10.97;;;4.43;;
16524;SDS011;8375;33.594;-117.718;2023-05-24T04:54:55;10.60;;;4.90;;
16524;SDS011;8375;33.594;-117.718;2023-05-24T04:57:24;11.77;;;5.00;;
16524;SDS011;8375;33.594;-117.718;2023-05-24T04:59:53;13.23;;;4.97;;
16524;SDS011;8375;33.594;-117.718;2023-05-24T05:02:22;10.37;;;4.27;;
16524;SDS011;8375;33.594;-117.718;2023-05-24T05:04:53;7.87;;;4.53;;
16524;SDS011;8375;33.594;-117.718;2023-05-24T05:07:22;14.30;;;5.53;;
16524;SDS011;8375;33.594;-117.718;2023-05-24T05:09:51;12.77;;;4.87;;
16524;SDS011;8375;33.594;-117.718;2023-05-24T05:12:20;8.40;;;4.80;;
16524;SDS011;8375;33.594;-117.718;2023-05-24T05:14:48;11.30;;;4.80;;
16524;SDS011;8375;33.594;-117.718;2023-05-24T05:17:17;14.63;;;4.53;;
16524;SDS011;8375;33.594;-117.718;2023-05-24T05:19:46;10.90;;;5.20;;
16524;SDS011;8375;33.594;-117.718;2023-05-24T05:22:16;15.07;;;5.03;;
16524;SDS011;8375;33.594;-117.718;2023-05-24T05:24:45;12.80;;;5.20;;
16524;SDS011;8375;33.594;-117.718;2023-05-24T05:27:14;9.90;;;4.60;;
16524;SDS011;8375;33.594;-117.718;2023-05-24T05:29:42;14.23;;;4.73;;
16524;SDS011;8375;33.594;-117.718;2023-05-24T05:32:11;9.90;;;4.97;;
16524;SDS011;8375;33.594;-117.718;2023-05-24T05:34:40;15.67;;;4.73;;
16524;SDS011;8375;33.594;-117.718;2023-05-24T05:37:08;12.47;;;4.83;;
16524;SDS011;8375;33.594;-117.718;2023-05-24T05:39:39;13.83;;;5.40;;
16524;SDS011;8375;33.594;-117.718;2023-05-24T05:42:07;19.53;;;5.50;;
16524;SDS011;8375;33.594;-117.718;2023-05-24T05:44:36;18.40;;;6.13;;
16524;SDS011;8375;33.594;-117.718;2023-05-24T05:47:05;19.50;;;5.83;;
16524;SDS011;8375;33.594;-117.718;2023-05-24T05:49:34;15.47;;;5.43;;
16524;SDS011;8375;33.594;-117.718;2023-05-24T05:52:03;10.27;;;4.80;;
16524;SDS011;8375;33.594;-117.718;2023-05-24T05:54:35;15.13;;;6.00;;
16524;SDS011;8375;33.594;-117.718;2023-05-24T05:57:05;15.33;;;5.17;;
16524;SDS011;8375;33.594;-117.718;2023-05-24T05:59:36;14.43;;;5.27;;
16524;SDS011;8375;33.594;-117.718;2023-05-24T06:02:04;12.90;;;6.00;;
16524;SDS011;8375;33.594;-117.718;2023-05-24T06:04:33;15.30;;;5.23;;
16524;SDS011;8375;33.594;-117.718;2023-05-24T06:07:02;14.13;;;5.40;;
16524;SDS011;8375;33.594;-117.718;2023-05-24T06:09:31;18.20;;;6.47;;
16524;SDS011;8375;33.594;-117.718;2023-05-24T06:11:59;17.07;;;5.63;;
16524;SDS011;8375;33.594;-117.718;2023-05-24T06:14:30;18.40;;;5.90;;
16524;SDS011;8375;33.594;-117.718;2023-05-24T06:16:59;16.77;;;5.83;;
16524;SDS011;8375;33.594;-117.718;2023-05-24T06:19:28;10.27;;;4.73;;
16524;SDS011;8375;33.594;-117.718;2023-05-24T06:21:57;14.67;;;5.23;;
16524;SDS011;8375;33.594;-117.718;2023-05-24T06:24:26;13.03;;;5.50;;
16524;SDS011;8375;33.594;-117.718;2023-05-24T06:26:55;11.50;;;5.57;;
16524;SDS011;8375;33.594;-117.718;2023-05-24T06:29:24;11.00;;;5.80;;
16524;SDS011;8375;33.594;-117.718;2023-05-24T06:31:54;13.60;;;6.50;;
16524;SDS011;8375;33.594;-117.718;2023-05-24T06:34:23;14.37;;;6.43;;
16524;SDS011;8375;33.594;-117.718;2023-05-24T06:36:52;14.93;;;6.27;;
16524;SDS011;8375;33.594;-117.718;2023-05-24T06:39:21;13.60;;;6.53;;
16524;SDS011;8375;33.594;-117.718;2023-05-24T06:41:50;13.47;;;5.90;;
16524;SDS011;8375;33.594;-117.718;2023-05-24T06:44:19;16.27;;;7.03;;
16524;SDS011;8375;33.594;-117.718;2023-05-24T06:46:48;11.67;;;6.30;;
16524;SDS011;8375;33.594;-117.718;2023-05-24T06:49:18;14.43;;;6.40;;
16524;SDS011;8375;33.594;-117.718;2023-05-24T06:51:47;13.30;;;6.27;;
16524;SDS011;8375;33.594;-117.718;2023-05-24T06:54:16;14.27;;;6.03;;
16524;SDS011;8375;33.594;-117.718;2023-05-24T06:56:44;12.10;;;5.87;;
16524;SDS011;8375;33.594;-117.718;2023-05-24T06:59:13;12.23;;;6.00;;
16524;SDS011;8375;33.594;-117.718;2023-05-24T07:01:42;12.90;;;5.37;;
16524;SDS011;8375;33.594;-117.718;2023-05-24T07:04:11;9.43;;;6.00;;
16524;SDS011;8375;33.594;-117.718;2023-05-24T07:06:41;8.00;;;6.27;;
16524;SDS011;8375;33.594;-117.718;2023-05-24T07:09:10;13.03;;;7.00;;
16524;SDS011;8375;33.594;-117.718;2023-05-24T07:11:39;15.83;;;6.47;;
16524;SDS011;8375;33.594;-117.718;2023-05-24T07:14:08;13.83;;;6.00;;
16524;SDS011;8375;33.594;-117.718;2023-05-24T07:16:37;19.17;;;7.00;;
16524;SDS011;8375;33.594;-117.718;2023-05-24T07:19:05;13.00;;;5.80;;
16524;SDS011;8375;33.594;-117.718;2023-05-24T07:21:34;14.40;;;6.37;;
16524;SDS011;8375;33.594;-117.718;2023-05-24T07:24:05;11.83;;;6.03;;
16524;SDS011;8375;33.594;-117.718;2023-05-24T07:26:33;10.67;;;5.97;;
16524;SDS011;8375;33.594;-117.718;2023-05-24T07:29:02;14.17;;;6.50;;
16524;SDS011;8375;33.594;-117.718;2023-05-24T07:31:31;11.53;;;5.80;;
16524;SDS011;8375;33.594;-117.718;2023-05-24T07:33:59;9.47;;;5.83;;
16524;SDS011;8375;33.594;-117.718;2023-05-24T07:36:28;12.87;;;6.20;;
16524;SDS011;8375;33.594;-117.718;2023-05-24T07:38:57;15.27;;;6.23;;
16524;SDS011;8375;33.594;-117.718;2023-05-24T07:41:29;12.80;;;5.73;;
16524;SDS011;8375;33.594;-117.718;2023-05-24T07:43:58;14.87;;;5.70;;
16524;SDS011;8375;33.594;-117.718;2023-05-24T07:46:26;11.53;;;5.73;;
16524;SDS011;8375;33.594;-117.718;2023-05-24T07:48:55;14.20;;;5.20;;
16524;SDS011;8375;33.594;-117.718;2023-05-24T07:51:24;14.07;;;6.07;;
16524;SDS011;8375;33.594;-117.718;2023-05-24T07:53:52;12.90;;;5.20;;
16524;SDS011;8375;33.594;-117.718;2023-05-24T07:56:21;10.23;;;5.30;;
16524;SDS011;8375;33.594;-117.718;2023-05-24T07:58:52;14.47;;;6.50;;
16524;SDS011;8375;33.594;-117.718;2023-05-24T08:01:28;14.03;;;6.27;;
16524;SDS011;8375;33.594;-117.718;2023-05-24T08:03:56;12.83;;;5.70;;
16524;SDS011;8375;33.594;-117.718;2023-05-24T08:06:25;15.13;;;6.90;;
16524;SDS011;8375;33.594;-117.718;2023-05-24T08:08:54;12.87;;;5.97;;
16524;SDS011;8375;33.594;-117.718;2023-05-24T08:11:23;14.83;;;6.27;;
16524;SDS011;8375;33.594;-117.718;2023-05-24T08:13:54;12.27;;;6.50;;
16524;SDS011;8375;33.594;-117.718;2023-05-24T08:16:22;13.57;;;6.20;;
16524;SDS011;8375;33.594;-117.718;2023-05-24T08:18:51;18.00;;;6.70;;
16524;SDS011;8375;33.594;-117.718;2023-05-24T08:21:20;12.80;;;6.10;;
16524;SDS011;8375;33.594;-117.718;2023-05-24T08:23:48;11.70;;;6.00;;
16524;SDS011;8375;33.594;-117.718;2023-05-24T08:26:17;11.93;;;5.83;;
16524;SDS011;8375;33.594;-117.718;2023-05-24T08:28:46;14.33;;;6.10;;
16524;SDS011;8375;33.594;-117.718;2023-05-24T08:31:17;15.00;;;6.23;;
16524;SDS011;8375;33.594;-117.718;2023-05-24T08:33:45;18.93;;;6.93;;
16524;SDS011;8375;33.594;-117.718;2023-05-24T08:36:15;13.03;;;6.37;;
16524;SDS011;8375;33.594;-117.718;2023-05-24T08:38:44;16.00;;;6.30;;
16524;SDS011;8375;33.594;-117.718;2023-05-24T08:41:12;9.23;;;5.37;;
16524;SDS011;8375;33.594;-117.718;2023-05-24T08:43:41;19.23;;;6.20;;
16524;SDS011;8375;33.594;-117.718;2023-05-24T08:46:10;12.83;;;6.43;;
16524;SDS011;8375;33.594;-117.718;2023-05-24T08:48:43;12.87;;;6.20;;
16524;SDS011;8375;33.594;-117.718;2023-05-24T08:51:13;10.13;;;5.13;;
16524;SDS011;8375;33.594;-117.718;2023-05-24T08:53:42;11.10;;;5.03;;
16524;SDS011;8375;33.594;-117.718;2023-05-24T08:56:13;7.80;;;4.80;;
16524;SDS011;8375;33.594;-117.718;2023-05-24T08:58:44;8.80;;;4.77;;
16524;SDS011;8375;33.594;-117.718;2023-05-24T09:01:13;10.57;;;5.20;;
16524;SDS011;8375;33.594;-117.718;2023-05-24T09:03:45;7.93;;;4.97;;
16524;SDS011;8375;33.594;-117.718;2023-05-24T09:06:15;6.80;;;4.50;;
16524;SDS011;8375;33.594;-117.718;2023-05-24T09:08:44;10.77;;;5.50;;
16524;SDS011;8375;33.594;-117.718;2023-05-24T09:11:17;11.37;;;5.10;;
16524;SDS011;8375;33.594;-117.718;2023-05-24T09:13:46;12.37;;;4.70;;
16524;SDS011;8375;33.594;-117.718;2023-05-24T09:16:15;7.63;;;4.83;;
16524;SDS011;8375;33.594;-117.718;2023-05-24T09:18:45;8.03;;;4.90;;
16524;SDS011;8375;33.594;-117.718;2023-05-24T09:21:15;8.87;;;5.20;;
16524;SDS011;8375;33.594;-117.718;2023-05-24T09:23:44;12.40;;;4.80;;
16524;SDS011;8375;33.594;-117.718;2023-05-24T09:26:13;8.73;;;4.63;;
16524;SDS011;8375;33.594;-117.718;2023-05-24T09:28:42;8.07;;;4.83;;
16524;SDS011;8375;33.594;-117.718;2023-05-24T09:31:11;13.00;;;4.97;;
16524;SDS011;8375;33.594;-117.718;2023-05-24T09:33:40;10.23;;;5.43;;
16524;SDS011;8375;33.594;-117.718;2023-05-24T09:36:13;8.63;;;5.10;;
16524;SDS011;8375;33.594;-117.718;2023-05-24T09:38:44;7.77;;;4.80;;
16524;SDS011;8375;33.594;-117.718;2023-05-24T09:41:13;9.97;;;4.60;;
16524;SDS011;8375;33.594;-117.718;2023-05-24T09:43:48;9.17;;;4.90;;
16524;SDS011;8375;33.594;-117.718;2023-05-24T09:46:17;9.47;;;4.37;;
16524;SDS011;8375;33.594;-117.718;2023-05-24T09:48:56;8.53;;;4.67;;
16524;SDS011;8375;33.594;-117.718;2023-05-24T09:51:26;7.87;;;4.60;;
16524;SDS011;8375;33.594;-117.718;2023-05-24T09:53:56;12.47;;;5.40;;
16524;SDS011;8375;33.594;-117.718;2023-05-24T09:56:25;11.17;;;5.23;;
16524;SDS011;8375;33.594;-117.718;2023-05-24T09:58:53;9.90;;;4.30;;
16524;SDS011;8375;33.594;-117.718;2023-05-24T10:01:22;6.23;;;4.37;;
16524;SDS011;8375;33.594;-117.718;2023-05-24T10:03:52;11.97;;;5.30;;
16524;SDS011;8375;33.594;-117.718;2023-05-24T10:06:22;10.90;;;4.60;;
16524;SDS011;8375;33.594;-117.718;2023-05-24T10:08:53;9.80;;;5.03;;
16524;SDS011;8375;33.594;-117.718;2023-05-24T10:11:22;7.97;;;4.87;;
16524;SDS011;8375;33.594;-117.718;2023-05-24T10:13:51;8.83;;;4.73;;
16524;SDS011;8375;33.594;-117.718;2023-05-24T10:16:21;10.13;;;5.30;;
16524;SDS011;8375;33.594;-117.718;2023-05-24T10:18:51;10.77;;;5.20;;
16524;SDS011;8375;33.594;-117.718;2023-05-24T10:21:25;9.93;;;5.23;;
16524;SDS011;8375;33.594;-117.718;2023-05-24T10:24:06;7.50;;;4.80;;
16524;SDS011;8375;33.594;-117.718;2023-05-24T10:26:37;8.93;;;5.23;;
16524;SDS011;8375;33.594;-117.718;2023-05-24T10:29:08;10.23;;;5.00;;
16524;SDS011;8375;33.594;-117.718;2023-05-24T10:31:51;9.40;;;5.37;;
16524;SDS011;8375;33.594;-117.718;2023-05-24T10:34:21;7.13;;;4.93;;
16524;SDS011;8375;33.594;-117.718;2023-05-24T10:36:50;9.30;;;4.97;;
16524;SDS011;8375;33.594;-117.718;2023-05-24T10:39:21;7.73;;;4.70;;
16524;SDS011;8375;33.594;-117.718;2023-05-24T10:41:54;8.73;;;5.27;;
16524;SDS011;8375;33.594;-117.718;2023-05-24T10:44:26;9.63;;;5.03;;
16524;SDS011;8375;33.594;-117.718;2023-05-24T10:49:50;9.13;;;4.87;;
16524;SDS011;8375;33.594;-117.718;2023-05-24T10:52:32;11.37;;;5.23;;
16524;SDS011;8375;33.594;-117.718;2023-05-24T10:55:04;8.50;;;5.07;;
16524;SDS011;8375;33.594;-117.718;2023-05-24T10:57:34;10.20;;;4.27;;
16524;SDS011;8375;33.594;-117.718;2023-05-24T11:02:58;9.40;;;4.23;;
16524;SDS011;8375;33.594;-117.718;2023-05-24T11:05:32;7.23;;;4.07;;
16524;SDS011;8375;33.594;-117.718;2023-05-24T11:08:01;7.53;;;4.37;;
16524;SDS011;8375;33.594;-117.718;2023-05-24T11:10:35;8.77;;;4.57;;
16524;SDS011;8375;33.594;-117.718;2023-05-24T11:13:06;8.00;;;5.00;;
16524;SDS011;8375;33.594;-117.718;2023-05-24T11:15:35;5.17;;;3.90;;
16524;SDS011;8375;33.594;-117.718;2023-05-24T11:18:12;10.90;;;4.80;;
16524;SDS011;8375;33.594;-117.718;2023-05-24T11:20:41;6.23;;;3.70;;
16524;SDS011;8375;33.594;-117.718;2023-05-24T11:23:13;6.87;;;3.57;;
16524;SDS011;8375;33.594;-117.718;2023-05-24T11:25:44;6.87;;;3.90;;
16524;SDS011;8375;33.594;-117.718;2023-05-24T11:28:14;5.93;;;3.70;;
16524;SDS011;8375;33.594;-117.718;2023-05-24T11:30:44;3.93;;;3.27;;
16524;SDS011;8375;33.594;-117.718;2023-05-24T11:33:14;7.33;;;3.73;;
16524;SDS011;8375;33.594;-117.718;2023-05-24T11:35:44;7.73;;;3.90;;
16524;SDS011;8375;33.594;-117.718;2023-05-24T11:38:14;4.80;;;3.83;;
16524;SDS011;8375;33.594;-117.718;2023-05-24T11:40:45;6.63;;;3.80;;
16524;SDS011;8375;33.594;-117.718;2023-05-24T11:43:15;10.17;;;4.17;;
16524;SDS011;8375;33.594;-117.718;2023-05-24T11:45:44;7.97;;;3.87;;
16524;SDS011;8375;33.594;-117.718;2023-05-24T11:48:15;6.97;;;3.87;;
16524;SDS011;8375;33.594;-117.718;2023-05-24T11:50:45;7.30;;;3.77;;
16524;SDS011;8375;33.594;-117.718;2023-05-24T11:53:15;9.03;;;3.90;;
16524;SDS011;8375;33.594;-117.718;2023-05-24T11:55:46;6.93;;;3.83;;
16524;SDS011;8375;33.594;-117.718;2023-05-24T11:58:18;7.57;;;3.97;;
16524;SDS011;8375;33.594;-117.718;2023-05-24T12:00:49;6.77;;;4.07;;
16524;SDS011;8375;33.594;-117.718;2023-05-24T12:03:18;6.47;;;3.77;;
16524;SDS011;8375;33.594;-117.718;2023-05-24T12:05:47;5.67;;;3.83;;
16524;SDS011;8375;33.594;-117.718;2023-05-24T12:08:17;7.27;;;3.83;;
16524;SDS011;8375;33.594;-117.718;2023-05-24T12:10:47;6.07;;;4.40;;
16524;SDS011;8375;33.594;-117.718;2023-05-24T12:13:18;5.43;;;3.97;;
16524;SDS011;8375;33.594;-117.718;2023-05-24T12:15:49;6.43;;;3.70;;
16524;SDS011;8375;33.594;-117.718;2023-05-24T12:18:18;5.90;;;4.20;;
16524;SDS011;8375;33.594;-117.718;2023-05-24T12:20:47;5.90;;;4.17;;
16524;SDS011;8375;33.594;-117.718;2023-05-24T12:23:18;11.23;;;4.27;;
16524;SDS011;8375;33.594;-117.718;2023-05-24T12:25:58;11.90;;;4.90;;
16524;SDS011;8375;33.594;-117.718;2023-05-24T12:28:31;10.67;;;5.03;;
16524;SDS011;8375;33.594;-117.718;2023-05-24T12:31:03;7.77;;;4.37;;
16524;SDS011;8375;33.594;-117.718;2023-05-24T12:33:33;8.20;;;4.57;;
16524;SDS011;8375;33.594;-117.718;2023-05-24T12:36:02;5.70;;;4.70;;
16524;SDS011;8375;33.594;-117.718;2023-05-24T12:38:31;8.80;;;4.20;;
16524;SDS011;8375;33.594;-117.718;2023-05-24T12:41:01;7.27;;;3.93;;
16524;SDS011;8375;33.594;-117.718;2023-05-24T12:43:30;7.27;;;4.33;;
16524;SDS011;8375;33.594;-117.718;2023-05-24T12:45:59;5.10;;;3.87;;
16524;SDS011;8375;33.594;-117.718;2023-05-24T12:48:28;5.20;;;3.90;;
16524;SDS011;8375;33.594;-117.718;2023-05-24T12:50:57;5.57;;;4.00;;
16524;SDS011;8375;33.594;-117.718;2023-05-24T12:53:26;4.13;;;3.60;;
16524;SDS011;8375;33.594;-117.718;2023-05-24T12:55:55;8.33;;;3.90;;
16524;SDS011;8375;33.594;-117.718;2023-05-24T12:58:27;6.90;;;4.30;;
16524;SDS011;8375;33.594;-117.718;2023-05-24T13:00:56;10.17;;;4.30;;
16524;SDS011;8375;33.594;-117.718;2023-05-24T13:03:25;4.77;;;3.70;;
16524;SDS011;8375;33.594;-117.718;2023-05-24T13:05:53;10.47;;;4.67;;
16524;SDS011;8375;33.594;-117.718;2023-05-24T13:08:24;5.80;;;4.17;;
16524;SDS011;8375;33.594;-117.718;2023-05-24T13:10:54;6.93;;;4.47;;
16524;SDS011;8375;33.594;-117.718;2023-05-24T13:13:23;5.87;;;4.07;;
16524;SDS011;8375;33.594;-117.718;2023-05-24T13:15:55;7.83;;;4.10;;
16524;SDS011;8375;33.594;-117.718;2023-05-24T13:18:24;4.60;;;3.60;;
16524;SDS011;8375;33.594;-117.718;2023-05-24T13:20:53;6.50;;;4.67;;
16524;SDS011;8375;33.594;-117.718;2023-05-24T13:23:22;9.27;;;4.10;;
16524;SDS011;8375;33.594;-117.718;2023-05-24T13:25:51;6.87;;;4.33;;
16524;SDS011;8375;33.594;-117.718;2023-05-24T13:28:19;12.70;;;4.30;;
16524;SDS011;8375;33.594;-117.718;2023-05-24T13:30:48;6.93;;;4.33;;
16524;SDS011;8375;33.594;-117.718;2023-05-24T13:33:19;6.70;;;4.07;;
16524;SDS011;8375;33.594;-117.718;2023-05-24T13:35:47;9.23;;;4.40;;
16524;SDS011;8375;33.594;-117.718;2023-05-24T13:38:17;5.77;;;3.80;;
16524;SDS011;8375;33.594;-117.718;2023-05-24T13:40:45;7.43;;;4.57;;
16524;SDS011;8375;33.594;-117.718;2023-05-24T13:43:14;8.27;;;4.47;;
16524;SDS011;8375;33.594;-117.718;2023-05-24T13:45:43;4.37;;;3.80;;
16524;SDS011;8375;33.594;-117.718;2023-05-24T13:48:12;7.47;;;4.50;;
16524;SDS011;8375;33.594;-117.718;2023-05-24T13:50:43;8.70;;;4.43;;
16524;SDS011;8375;33.594;-117.718;2023-05-24T13:53:12;9.23;;;4.37;;
16524;SDS011;8375;33.594;-117.718;2023-05-24T13:55:40;7.37;;;4.90;;
16524;SDS011;8375;33.594;-117.718;2023-05-24T13:58:10;11.53;;;4.50;;
16524;SDS011;8375;33.594;-117.718;2023-05-24T14:00:39;7.97;;;4.87;;
16524;SDS011;8375;33.594;-117.718;2023-05-24T14:03:08;7.47;;;4.90;;
16524;SDS011;8375;33.594;-117.718;2023-05-24T14:05:37;9.63;;;5.87;;
16524;SDS011;8375;33.594;-117.718;2023-05-24T14:08:08;7.30;;;4.33;;
16524;SDS011;8375;33.594;-117.718;2023-05-24T14:10:36;9.67;;;4.63;;
16524;SDS011;8375;33.594;-117.718;2023-05-24T14:13:05;9.13;;;5.17;;
16524;SDS011;8375;33.594;-117.718;2023-05-24T14:15:34;7.90;;;4.70;;
16524;SDS011;8375;33.594;-117.718;2023-05-24T14:18:03;10.77;;;5.30;;
16524;SDS011;8375;33.594;-117.718;2023-05-24T14:20:32;9.77;;;5.47;;
16524;SDS011;8375;33.594;-117.718;2023-05-24T14:23:02;10.27;;;5.10;;
16524;SDS011;8375;33.594;-117.718;2023-05-24T14:25:32;7.13;;;5.03;;
16524;SDS011;8375;33.594;-117.718;2023-05-24T14:28:01;9.23;;;5.00;;
16524;SDS011;8375;33.594;-117.718;2023-05-24T14:30:31;10.77;;;5.07;;
16524;SDS011;8375;33.594;-117.718;2023-05-24T14:33:02;8.90;;;4.60;;
16524;SDS011;8375;33.594;-117.718;2023-05-24T14:35:31;8.10;;;4.70;;
16524;SDS011;8375;33.594;-117.718;2023-05-24T14:38:04;10.70;;;5.33;;